KLHB/LHB METAR and TAF weather

Enter ICAO airport designator
Station Type Date Time Source
KLHB METAR 2023/01/30 12:15 UTC NOAA

KLHB 301215Z AUTO 35011G16KT 5SM BR OVC005 01/01 A3023 RMK AO2 T00130005


Station Type Date Time Source
KLHB Decoded METAR 2023/01/30 12:15 UTC NOAA

Hearne, Hearne Municipal Airport, TX, United States (KLHB) 30-52-18N 096-37-20W
Jan 30, 2023 - 07:15 AM EST / 2023.01.30 1215 UTC
Wind: from the N (350 degrees) at 13 MPH (11 KT) gusting to 18 MPH (16 KT):0
Visibility: 5 mile(s):0
Sky conditions: overcast
Weather: mist
Temperature: 34.3 F (1.3 C)
Windchill: 24 F (-4 C):1
Dew Point: 32.9 F (0.5 C)
Relative Humidity: 94%
Pressure (altimeter): 30.23 in. Hg (1023 hPa)
ob: KLHB 301215Z AUTO 35011G16KT 5SM BR OVC005 01/01 A3023 RMK AO2 T00130005
cycle: 12

Station Type Date Time Source
KLHB TAF UTC NOAA

Error!

Example: see airport list